createdAt,value
2022-10-28T00:01:21.609Z,15.90
2022-10-28T00:03:51.090Z,15.90
2022-10-28T00:06:24.721Z,15.80
2022-10-28T00:08:52.615Z,15.90
2022-10-28T00:11:22.711Z,15.80
2022-10-28T00:13:52.557Z,15.90
2022-10-28T00:16:22.718Z,15.80
2022-10-28T00:18:52.655Z,15.80
2022-10-28T00:21:23.605Z,15.80
2022-10-28T00:23:51.324Z,15.80
2022-10-28T00:26:24.683Z,15.80
2022-10-28T00:28:54.859Z,15.70
2022-10-28T00:31:24.572Z,15.70
2022-10-28T00:33:52.121Z,15.60
2022-10-28T00:36:23.205Z,15.60
2022-10-28T00:38:52.327Z,15.60
2022-10-28T00:41:26.764Z,15.70
2022-10-28T00:43:56.931Z,15.70
2022-10-28T00:46:42.422Z,15.70
2022-10-28T00:49:18.751Z,15.70
2022-10-28T00:51:50.606Z,15.80
2022-10-28T00:54:18.429Z,15.70
2022-10-28T00:56:49.610Z,15.60
2022-10-28T00:59:29.599Z,15.60
2022-10-28T01:01:57.083Z,15.70
2022-10-28T01:04:25.048Z,15.70
2022-10-28T01:06:52.602Z,15.70
2022-10-28T01:09:19.878Z,15.70
2022-10-28T01:12:06.014Z,15.70
2022-10-28T01:14:48.254Z,15.70
2022-10-28T01:17:27.356Z,15.80
2022-10-28T01:20:27.411Z,15.80
2022-10-28T01:23:14.165Z,15.80
2022-10-28T01:25:44.388Z,15.80
2022-10-28T01:28:30.255Z,15.70
2022-10-28T01:31:24.955Z,15.60
2022-10-28T01:34:14.576Z,15.50
2022-10-28T01:37:06.144Z,15.50
2022-10-28T01:40:06.238Z,15.50
2022-10-28T01:42:45.846Z,15.50
2022-10-28T01:45:50.585Z,15.50
2022-10-28T01:51:28.094Z,15.60
2022-10-28T01:53:58.232Z,15.60
2022-10-28T01:56:30.464Z,15.70
2022-10-28T01:59:00.689Z,15.70
2022-10-28T02:01:30.388Z,15.70
2022-10-28T02:03:58.503Z,15.60
2022-10-28T02:06:29.048Z,15.60
2022-10-28T02:09:15.255Z,15.60
2022-10-28T02:11:42.446Z,15.50
2022-10-28T02:14:28.236Z,15.50
2022-10-28T02:17:31.717Z,15.40
2022-10-28T02:20:08.142Z,15.40
2022-10-28T02:23:07.952Z,15.30
2022-10-28T02:25:42.576Z,15.30
2022-10-28T02:28:13.014Z,15.30
2022-10-28T02:31:16.516Z,15.10
2022-10-28T02:33:47.955Z,15.10
2022-10-28T02:36:18.118Z,14.90
2022-10-28T02:38:51.427Z,14.90
2022-10-28T02:41:35.260Z,14.90
2022-10-28T02:44:07.760Z,14.80
2022-10-28T02:46:38.561Z,14.80
2022-10-28T02:49:11.178Z,14.80
2022-10-28T02:51:44.229Z,14.80
2022-10-28T02:54:14.203Z,14.80
2022-10-28T02:57:02.650Z,14.80
2022-10-28T02:59:30.248Z,14.80
2022-10-28T03:01:57.644Z,14.80
2022-10-28T03:04:25.187Z,14.90
2022-10-28T03:06:52.489Z,14.90
2022-10-28T03:09:19.836Z,14.90
2022-10-28T03:11:47.139Z,14.90
2022-10-28T03:14:15.427Z,14.90
2022-10-28T03:16:42.935Z,14.90
2022-10-28T03:19:10.305Z,14.90
2022-10-28T03:21:37.636Z,15.00
2022-10-28T03:24:05.097Z,15.00
2022-10-28T03:26:32.373Z,14.90
2022-10-28T03:28:59.700Z,14.90
2022-10-28T03:31:27.027Z,14.80
2022-10-28T03:33:54.395Z,14.80
2022-10-28T03:36:21.705Z,14.90
2022-10-28T03:38:49.165Z,14.90
2022-10-28T03:41:16.518Z,14.90
2022-10-28T03:43:45.177Z,14.90
2022-10-28T03:46:12.666Z,15.00
2022-10-28T03:48:40.152Z,15.00
2022-10-28T03:51:07.565Z,14.90
2022-10-28T03:53:35.026Z,14.90
2022-10-28T03:56:03.248Z,15.00
2022-10-28T03:58:30.680Z,15.00
2022-10-28T04:00:58.061Z,15.00
2022-10-28T04:03:26.115Z,15.00
2022-10-28T04:05:53.460Z,15.00
2022-10-28T04:08:21.305Z,15.00
2022-10-28T04:10:49.500Z,15.00
2022-10-28T04:13:17.753Z,15.00
2022-10-28T04:15:45.071Z,15.00
2022-10-28T04:18:12.800Z,15.00
2022-10-28T04:20:40.603Z,15.00
2022-10-28T04:23:08.944Z,14.90
2022-10-28T04:25:36.306Z,14.80
2022-10-28T04:28:03.719Z,14.60
2022-10-28T04:30:31.019Z,14.60
2022-10-28T04:32:58.330Z,14.50
2022-10-28T04:35:25.807Z,14.40
2022-10-28T04:37:53.197Z,14.30
2022-10-28T04:40:20.545Z,14.30
2022-10-28T04:42:47.739Z,14.30
2022-10-28T04:45:15.652Z,14.40
2022-10-28T04:47:42.872Z,14.40
2022-10-28T04:50:10.189Z,14.50
2022-10-28T04:52:37.424Z,14.50
2022-10-28T04:55:05.032Z,14.50
2022-10-28T04:57:32.924Z,14.50
2022-10-28T05:00:00.180Z,14.60
2022-10-28T05:02:27.478Z,14.60
2022-10-28T05:04:54.788Z,14.60
2022-10-28T05:07:23.589Z,14.60
2022-10-28T05:09:51.079Z,14.60
2022-10-28T05:12:18.292Z,14.60
2022-10-28T05:14:47.182Z,14.60
2022-10-28T05:17:15.251Z,14.60
2022-10-28T05:19:45.155Z,14.60
2022-10-28T05:22:12.370Z,14.60
2022-10-28T05:24:39.739Z,14.60
2022-10-28T05:27:07.048Z,14.60
2022-10-28T05:29:34.294Z,14.60
2022-10-28T05:32:01.631Z,14.60
2022-10-28T05:34:28.884Z,14.60
2022-10-28T05:36:56.084Z,14.60
2022-10-28T05:39:23.378Z,14.60
2022-10-28T05:41:50.687Z,14.60
2022-10-28T05:44:17.959Z,14.60
2022-10-28T05:46:45.296Z,14.60
2022-10-28T05:49:12.553Z,14.60
2022-10-28T05:51:39.930Z,14.60
2022-10-28T05:54:07.283Z,14.70
2022-10-28T05:56:34.714Z,14.70
2022-10-28T05:59:02.041Z,14.70
2022-10-28T06:01:30.104Z,14.70
2022-10-28T06:03:57.503Z,14.80
2022-10-28T06:06:25.015Z,14.80
2022-10-28T06:08:52.212Z,14.90
2022-10-28T06:11:17.987Z,15.10
2022-10-28T06:13:45.239Z,15.20
2022-10-28T06:16:12.644Z,15.50
2022-10-28T06:18:39.939Z,15.70
2022-10-28T06:21:07.255Z,15.90
2022-10-28T06:23:34.771Z,16.10
2022-10-28T06:26:04.069Z,16.40
2022-10-28T06:28:31.600Z,16.60
2022-10-28T06:31:03.531Z,16.70
2022-10-28T06:33:34.024Z,16.70
2022-10-28T06:36:01.815Z,16.90
2022-10-28T06:38:29.362Z,17.10
2022-10-28T06:40:57.992Z,17.40
2022-10-28T06:43:25.299Z,17.70
2022-10-28T06:45:55.498Z,17.90
2022-10-28T06:48:24.676Z,18.20
2022-10-28T06:50:54.561Z,18.30
2022-10-28T06:53:22.007Z,18.60
2022-10-28T06:55:54.157Z,18.70
2022-10-28T06:58:21.990Z,18.70
2022-10-28T07:00:49.385Z,18.80
2022-10-28T07:03:18.739Z,19.00
2022-10-28T07:05:47.401Z,19.10
2022-10-28T07:08:15.004Z,19.10
2022-10-28T07:10:42.265Z,19.20
2022-10-28T07:13:09.532Z,19.40
2022-10-28T07:15:36.738Z,19.60
2022-10-28T07:18:04.118Z,19.80
2022-10-28T07:20:32.913Z,20.00
2022-10-28T07:23:01.858Z,20.20
2022-10-28T07:25:30.798Z,20.30
2022-10-28T07:27:59.316Z,20.50
2022-10-28T07:30:27.819Z,20.70
2022-10-28T07:32:58.536Z,20.80
2022-10-28T07:35:25.785Z,20.60
2022-10-28T07:37:53.340Z,20.70
2022-10-28T07:40:21.808Z,20.80
2022-10-28T07:42:49.061Z,21.00
2022-10-28T07:45:17.215Z,21.20
2022-10-28T07:47:45.165Z,21.30
2022-10-28T07:50:13.284Z,21.60
2022-10-28T07:52:40.585Z,21.80
2022-10-28T07:55:09.677Z,22.00
2022-10-28T07:57:37.753Z,22.20
2022-10-28T08:00:06.556Z,22.30
2022-10-28T08:02:39.819Z,22.40
2022-10-28T08:05:07.464Z,22.60
2022-10-28T08:07:37.773Z,22.80
2022-10-28T08:10:06.925Z,23.00
2022-10-28T08:12:34.206Z,23.10
2022-10-28T08:15:02.601Z,23.10
2022-10-28T08:17:29.984Z,23.10
2022-10-28T08:19:57.343Z,23.20
2022-10-28T08:22:24.717Z,23.20
2022-10-28T08:24:52.161Z,23.50
2022-10-28T08:27:19.420Z,23.80
2022-10-28T08:29:46.645Z,23.60
2022-10-28T08:32:13.843Z,23.50
2022-10-28T08:34:43.549Z,23.60
2022-10-28T08:37:11.353Z,23.70
2022-10-28T08:39:38.725Z,23.90
2022-10-28T08:42:46.215Z,23.80
2022-10-28T08:45:33.961Z,23.90
2022-10-28T08:48:14.231Z,24.00
2022-10-28T08:50:53.100Z,24.00
2022-10-28T08:53:37.996Z,24.20
2022-10-28T08:56:15.179Z,24.30
2022-10-28T08:58:44.795Z,24.40
2022-10-28T09:01:35.470Z,24.60
2022-10-28T09:04:08.093Z,24.60
2022-10-28T09:06:35.321Z,24.70
2022-10-28T09:09:03.529Z,24.70
2022-10-28T09:11:43.337Z,24.60
2022-10-28T09:14:36.184Z,24.70
2022-10-28T09:17:21.292Z,24.80
2022-10-28T09:20:04.450Z,24.90
2022-10-28T09:22:37.064Z,25.00
2022-10-28T09:25:22.615Z,25.00
2022-10-28T09:28:21.366Z,24.80
2022-10-28T09:30:59.440Z,24.70
2022-10-28T09:33:50.865Z,24.70
2022-10-28T09:36:24.964Z,24.80
2022-10-28T09:38:56.156Z,24.90
2022-10-28T09:41:28.479Z,25.20
2022-10-28T09:44:01.281Z,25.50
2022-10-28T09:46:36.196Z,25.70
2022-10-28T09:49:11.664Z,25.40
2022-10-28T09:52:15.216Z,25.30
2022-10-28T09:54:51.357Z,25.20
2022-10-28T09:57:19.702Z,25.40
2022-10-28T09:59:47.233Z,25.60
2022-10-28T10:02:35.746Z,25.70
2022-10-28T10:05:03.693Z,25.60
2022-10-28T10:07:40.632Z,25.80
2022-10-28T10:10:19.891Z,25.80
2022-10-28T10:12:51.502Z,25.80
2022-10-28T10:15:31.000Z,25.80
2022-10-28T10:18:02.215Z,25.60
2022-10-28T10:20:47.256Z,25.50
2022-10-28T10:23:35.034Z,25.20
2022-10-28T10:26:08.156Z,25.30
2022-10-28T10:28:44.333Z,25.50
2022-10-28T10:31:26.895Z,25.40
2022-10-28T10:33:57.368Z,25.40
2022-10-28T10:36:31.536Z,25.50
2022-10-28T10:39:01.839Z,25.60
2022-10-28T10:41:42.463Z,25.50
2022-10-28T10:44:21.987Z,25.60
2022-10-28T10:46:55.225Z,25.60
2022-10-28T10:49:22.507Z,25.50
2022-10-28T10:51:54.686Z,25.30
2022-10-28T10:54:22.032Z,25.30
2022-10-28T10:56:49.310Z,25.30
2022-10-28T10:59:24.604Z,25.20
2022-10-28T11:01:52.773Z,25.00
2022-10-28T11:04:22.924Z,25.00
2022-10-28T11:06:54.857Z,25.00
2022-10-28T11:09:36.003Z,24.90
2022-10-28T11:12:28.346Z,24.80
2022-10-28T11:15:15.531Z,24.80
2022-10-28T11:17:57.887Z,24.80
2022-10-28T11:20:51.196Z,24.90
2022-10-28T11:23:23.908Z,24.90
2022-10-28T11:25:54.776Z,24.80
2022-10-28T11:29:07.491Z,24.90
2022-10-28T11:32:13.153Z,24.80
2022-10-28T11:34:59.159Z,24.80
2022-10-28T11:37:45.160Z,24.80
2022-10-28T11:40:31.307Z,24.70
2022-10-28T11:43:19.306Z,24.70
2022-10-28T11:45:55.816Z,24.70
2022-10-28T11:48:31.944Z,24.50
2022-10-28T11:51:31.075Z,24.60
2022-10-28T11:54:14.607Z,24.70
2022-10-28T11:57:08.309Z,24.80
2022-10-28T12:00:20.053Z,24.70
2022-10-28T12:03:00.040Z,24.70
2022-10-28T12:06:17.219Z,24.80
2022-10-28T12:08:53.654Z,24.90
2022-10-28T12:11:40.003Z,25.00
2022-10-28T12:14:34.797Z,25.00
2022-10-28T12:17:18.337Z,25.10
2022-10-28T12:19:59.467Z,25.00
2022-10-28T12:22:26.656Z,25.00
2022-10-28T12:24:55.290Z,24.90
2022-10-28T12:27:33.453Z,25.00
2022-10-28T12:30:07.216Z,25.10
2022-10-28T12:32:37.772Z,25.20
2022-10-28T12:35:08.424Z,25.30
2022-10-28T12:37:47.704Z,25.50
2022-10-28T12:40:30.153Z,25.50
2022-10-28T12:43:10.227Z,25.50
2022-10-28T12:45:40.048Z,25.60
2022-10-28T12:48:14.302Z,25.50
2022-10-28T12:50:54.108Z,25.50
2022-10-28T12:53:44.151Z,25.30
2022-10-28T12:56:33.345Z,25.10
2022-10-28T12:59:20.638Z,25.10
2022-10-28T13:01:49.804Z,25.10
2022-10-28T13:04:17.405Z,25.10
2022-10-28T13:06:47.427Z,25.20
2022-10-28T13:09:37.861Z,25.20
2022-10-28T13:12:49.352Z,25.10
2022-10-28T13:15:37.278Z,25.20
2022-10-28T13:18:19.601Z,25.20
2022-10-28T13:21:07.104Z,25.20
2022-10-28T13:24:15.145Z,25.20
2022-10-28T13:26:44.776Z,25.10
2022-10-28T13:29:30.992Z,25.00
2022-10-28T13:31:58.653Z,24.70
2022-10-28T13:34:37.397Z,24.60
2022-10-28T13:37:15.838Z,24.40
2022-10-28T13:39:44.927Z,24.20
2022-10-28T13:42:16.108Z,24.10
2022-10-28T13:44:55.523Z,24.00
2022-10-28T13:47:28.553Z,24.00
2022-10-28T13:50:08.511Z,23.90
2022-10-28T13:52:38.381Z,23.80
2022-10-28T13:55:14.526Z,23.70
2022-10-28T13:57:48.163Z,23.70
2022-10-28T14:00:18.523Z,23.70
2022-10-28T14:02:56.368Z,23.60
2022-10-28T14:05:39.277Z,23.60
2022-10-28T14:08:18.215Z,23.60
2022-10-28T14:11:06.596Z,23.50
2022-10-28T14:13:41.051Z,23.60
2022-10-28T14:16:22.235Z,23.50
2022-10-28T14:19:09.723Z,23.50
2022-10-28T14:22:02.790Z,23.40
2022-10-28T14:24:34.932Z,23.50
2022-10-28T14:27:08.275Z,23.50
2022-10-28T14:29:54.790Z,23.50
2022-10-28T14:32:31.234Z,23.40
2022-10-28T14:35:20.232Z,23.40
2022-10-28T14:38:31.704Z,23.40
2022-10-28T14:41:17.100Z,23.40
2022-10-28T14:44:06.017Z,23.40
2022-10-28T14:46:36.032Z,23.30
2022-10-28T14:49:14.013Z,23.30
2022-10-28T14:51:42.434Z,23.30
2022-10-28T14:54:16.142Z,23.20
2022-10-28T14:56:44.086Z,23.30
2022-10-28T14:59:24.777Z,23.20
2022-10-28T15:02:10.919Z,23.20
2022-10-28T15:04:41.050Z,23.10
2022-10-28T15:07:20.409Z,23.10
2022-10-28T15:09:53.304Z,23.10
2022-10-28T15:12:25.924Z,23.10
2022-10-28T15:14:55.815Z,23.10
2022-10-28T15:17:24.193Z,23.00
2022-10-28T15:19:57.127Z,23.00
2022-10-28T15:22:33.220Z,23.00
2022-10-28T15:25:10.573Z,22.90
2022-10-28T15:27:40.147Z,22.80
2022-10-28T15:30:14.414Z,22.80
2022-10-28T15:32:41.884Z,22.70
2022-10-28T15:35:27.889Z,22.70
2022-10-28T15:37:56.122Z,22.70
2022-10-28T15:40:35.015Z,22.70
2022-10-28T15:43:07.143Z,22.60
2022-10-28T15:45:42.136Z,22.50
2022-10-28T15:48:13.415Z,22.50
2022-10-28T15:50:40.883Z,22.40
2022-10-28T15:53:10.851Z,22.40
2022-10-28T15:56:02.860Z,22.30
2022-10-28T15:58:40.485Z,22.30
2022-10-28T16:01:29.642Z,22.20
2022-10-28T16:03:57.433Z,22.10
2022-10-28T16:06:34.094Z,22.00
2022-10-28T16:09:06.046Z,21.90
2022-10-28T16:11:39.161Z,21.90
2022-10-28T16:14:17.605Z,21.80
2022-10-28T16:16:44.958Z,21.70
2022-10-28T16:19:28.339Z,21.60
2022-10-28T16:21:56.045Z,21.60
2022-10-28T16:24:23.247Z,21.50
2022-10-28T16:26:50.724Z,21.40
2022-10-28T16:29:17.920Z,21.30
2022-10-28T16:31:49.677Z,21.30
2022-10-28T16:34:16.997Z,21.10
2022-10-28T16:36:44.247Z,21.00
2022-10-28T16:39:12.995Z,20.80
2022-10-28T16:41:40.865Z,20.80
2022-10-28T16:44:18.139Z,20.70
2022-10-28T16:46:45.370Z,20.70
2022-10-28T16:49:13.067Z,20.60
2022-10-28T16:51:40.517Z,20.60
2022-10-28T16:54:08.422Z,20.40
2022-10-28T16:56:35.688Z,20.40
2022-10-28T16:59:02.878Z,20.30
2022-10-28T17:01:30.330Z,20.10
2022-10-28T17:03:57.669Z,20.10
2022-10-28T17:06:24.945Z,20.00
2022-10-28T17:09:07.465Z,20.10
2022-10-28T17:11:34.748Z,20.10
2022-10-28T17:14:02.309Z,19.90
2022-10-28T17:16:29.519Z,19.90
2022-10-28T17:18:56.759Z,19.70
2022-10-28T17:21:24.058Z,19.70
2022-10-28T17:23:51.631Z,19.50
2022-10-28T17:26:18.932Z,19.40
2022-10-28T17:28:52.175Z,19.30
2022-10-28T17:31:23.905Z,19.20
2022-10-28T17:33:55.827Z,19.10
2022-10-28T17:36:23.750Z,19.00
2022-10-28T17:38:51.068Z,19.00
2022-10-28T17:41:19.223Z,19.00
2022-10-28T17:43:46.564Z,19.10
2022-10-28T17:46:13.885Z,19.20
2022-10-28T17:48:41.242Z,19.30
2022-10-28T17:51:08.615Z,19.30
2022-10-28T17:53:35.801Z,19.50
2022-10-28T17:56:05.845Z,19.60
2022-10-28T17:58:33.442Z,19.70
2022-10-28T18:01:03.691Z,19.70
2022-10-28T18:03:34.037Z,19.70
2022-10-28T18:06:07.258Z,19.70
2022-10-28T18:08:39.483Z,19.70
2022-10-28T18:11:08.580Z,19.60
2022-10-28T18:13:38.377Z,19.70
2022-10-28T18:16:11.055Z,19.70
2022-10-28T18:18:42.167Z,19.60
2022-10-28T18:21:11.757Z,19.40
2022-10-28T18:23:40.837Z,19.40
2022-10-28T18:26:10.554Z,19.50
2022-10-28T18:28:38.831Z,19.50
2022-10-28T18:31:19.135Z,19.50
2022-10-28T18:33:50.274Z,19.50
2022-10-28T18:36:20.824Z,19.50
2022-10-28T18:38:49.144Z,19.40
2022-10-28T18:41:19.417Z,19.40
2022-10-28T18:43:47.687Z,19.50
2022-10-28T18:46:15.011Z,19.50
2022-10-28T18:48:42.378Z,19.50
2022-10-28T18:51:13.253Z,19.60
2022-10-28T18:53:43.653Z,19.50
2022-10-28T18:56:14.494Z,19.50
2022-10-28T18:58:42.301Z,19.40
2022-10-28T19:01:18.110Z,19.30
2022-10-28T19:03:45.998Z,19.20
2022-10-28T19:06:16.183Z,19.20
2022-10-28T19:08:44.068Z,19.20
2022-10-28T19:11:13.332Z,19.30
2022-10-28T19:13:48.252Z,19.30
2022-10-28T19:16:15.958Z,19.40
2022-10-28T19:18:43.506Z,19.50
2022-10-28T19:21:14.106Z,19.60
2022-10-28T19:23:42.636Z,19.50
2022-10-28T19:26:11.552Z,19.60
2022-10-28T19:28:46.920Z,19.60
2022-10-28T19:31:21.139Z,19.50
2022-10-28T19:33:48.962Z,19.30
2022-10-28T19:36:26.350Z,19.20
2022-10-28T19:38:58.090Z,18.90
2022-10-28T19:41:27.949Z,18.80
2022-10-28T19:43:59.780Z,18.60
2022-10-28T19:46:29.972Z,18.40
2022-10-28T19:49:37.196Z,18.30
2022-10-28T19:52:05.744Z,18.20
2022-10-28T19:54:33.460Z,18.20
2022-10-28T19:57:00.900Z,18.10
2022-10-28T19:59:31.408Z,18.10
2022-10-28T20:01:58.961Z,18.10
2022-10-28T20:04:26.889Z,18.00
2022-10-28T20:06:54.767Z,18.00
2022-10-28T20:09:27.869Z,17.90
2022-10-28T20:11:56.184Z,17.90
2022-10-28T20:14:23.510Z,17.80
2022-10-28T20:16:50.965Z,17.80
2022-10-28T20:19:18.229Z,17.90
2022-10-28T20:21:48.514Z,17.90
2022-10-28T20:24:17.449Z,17.90
2022-10-28T20:26:44.745Z,17.90
2022-10-28T20:29:12.216Z,17.90
2022-10-28T20:31:39.773Z,17.70
2022-10-28T20:34:07.961Z,17.70
2022-10-28T20:36:40.719Z,17.70
2022-10-28T20:39:11.004Z,17.70
2022-10-28T20:41:39.982Z,17.70
2022-10-28T20:44:08.096Z,17.70
2022-10-28T20:46:36.087Z,17.70
2022-10-28T20:49:03.980Z,17.70
2022-10-28T20:51:32.550Z,17.70
2022-10-28T20:54:00.185Z,17.60
2022-10-28T20:56:29.889Z,17.60
2022-10-28T20:58:59.598Z,17.70
2022-10-28T21:01:29.821Z,17.60
2022-10-28T21:03:59.758Z,17.50
2022-10-28T21:06:29.422Z,17.50
2022-10-28T21:08:57.272Z,17.40
2022-10-28T21:11:33.580Z,17.30
2022-10-28T21:14:07.092Z,17.30
2022-10-28T21:16:37.204Z,17.30
2022-10-28T21:19:16.681Z,17.30
2022-10-28T21:21:45.215Z,17.20
2022-10-28T21:24:13.312Z,17.20
2022-10-28T21:26:41.493Z,17.20
2022-10-28T21:29:14.452Z,17.20
2022-10-28T21:31:44.251Z,17.30
2022-10-28T21:34:15.207Z,17.20
2022-10-28T21:36:45.919Z,17.20
2022-10-28T21:39:41.874Z,17.20
2022-10-28T21:42:38.964Z,17.10
2022-10-28T21:45:07.641Z,17.00
2022-10-28T21:47:35.056Z,17.00
2022-10-28T21:50:02.471Z,16.90
2022-10-28T21:52:29.813Z,16.80
2022-10-28T21:54:57.086Z,16.80
2022-10-28T21:57:31.124Z,16.70
2022-10-28T21:59:58.415Z,16.70
2022-10-28T22:02:25.841Z,16.70
2022-10-28T22:04:53.257Z,16.70
2022-10-28T22:07:20.460Z,16.70
2022-10-28T22:09:47.714Z,16.60
2022-10-28T22:12:14.921Z,16.70
2022-10-28T22:14:42.137Z,16.70
2022-10-28T22:17:09.439Z,16.70
2022-10-28T22:19:36.670Z,16.70
2022-10-28T22:22:03.884Z,16.70
2022-10-28T22:24:31.113Z,16.70
2022-10-28T22:26:58.394Z,16.60
2022-10-28T22:29:25.616Z,16.50
2022-10-28T22:31:52.829Z,16.40
2022-10-28T22:34:20.563Z,16.20
2022-10-28T22:36:47.860Z,16.10
2022-10-28T22:39:15.106Z,16.10
2022-10-28T22:41:42.345Z,16.00
2022-10-28T22:44:09.594Z,16.00
2022-10-28T22:46:36.834Z,15.90
2022-10-28T22:49:04.373Z,15.90
2022-10-28T22:51:32.545Z,16.00
2022-10-28T22:53:59.902Z,15.90
2022-10-28T22:56:27.700Z,15.70
2022-10-28T22:58:57.353Z,15.80
2022-10-28T23:01:26.419Z,15.80
2022-10-28T23:03:55.001Z,15.70
2022-10-28T23:06:24.965Z,15.70
2022-10-28T23:08:52.338Z,15.60
2022-10-28T23:11:20.780Z,15.60
2022-10-28T23:13:52.830Z,15.70
2022-10-28T23:16:20.922Z,15.70
2022-10-28T23:18:48.748Z,15.70
2022-10-28T23:21:25.783Z,15.70
2022-10-28T23:23:58.556Z,15.80
2022-10-28T23:26:27.623Z,15.80
2022-10-28T23:28:57.260Z,15.80
2022-10-28T23:31:24.600Z,15.80
2022-10-28T23:33:53.686Z,15.80
2022-10-28T23:36:21.368Z,15.80
2022-10-28T23:38:48.702Z,15.70
2022-10-28T23:41:18.782Z,15.70
2022-10-28T23:43:47.329Z,15.70
2022-10-28T23:46:14.662Z,15.60
2022-10-28T23:48:41.897Z,15.50
2022-10-28T23:51:09.113Z,15.50
2022-10-28T23:53:36.513Z,15.50
2022-10-28T23:56:03.985Z,15.50
2022-10-28T23:58:31.256Z,15.60
